Edgerton, Canada
Current Conditions -  °F | °C
As of 10:00 AM on Thursday 30 Oct 2014 (Local Time) from CYLL Reporting Station
Overcast Overcast  
Wind Chill: 21°   Ceiling: 400
Heat Index: 32°   Visibility: 8mi
Dew Point: 30°   Wind: 16mph
Humidity: 93%   Direction: 160°SSE
Pressure: 30.34"   Gusts: NA
Location:  52.75°N, 110.45°W
Report Text: CYLL 301600Z 16014KT 8SM OVC004 M00/M01 A3034 RMK ST8 SLP309
Loading
Personal Weather Stations






























Interactive Weather Map
Tropical Storm Tracking
New forecast layout! Learn more

10-Day Weather Forecast

Advertisements
Track Severe Weather on mobile